createdAt,value
2019-02-28T00:04:11.651Z,9.44
2019-02-28T00:09:22.124Z,9.38
2019-02-28T00:14:33.803Z,9.28
2019-02-28T00:19:48.332Z,9.19
2019-02-28T00:25:01.099Z,9.16
2019-02-28T00:30:07.590Z,9.05
2019-02-28T00:35:18.245Z,8.97
2019-02-28T00:40:31.150Z,8.86
2019-02-28T00:45:40.269Z,8.77
2019-02-28T00:50:54.648Z,8.73
2019-02-28T00:56:03.977Z,8.69
2019-02-28T01:01:17.549Z,8.61
2019-02-28T01:06:27.471Z,8.55
2019-02-28T01:11:40.261Z,8.46
2019-02-28T01:16:50.221Z,8.37
2019-02-28T01:22:03.022Z,8.22
2019-02-28T01:27:17.324Z,8.10
2019-02-28T01:32:28.593Z,8.00
2019-02-28T01:37:44.136Z,7.90
2019-02-28T01:42:57.737Z,7.84
2019-02-28T01:48:07.911Z,7.78
2019-02-28T01:53:19.567Z,7.74
2019-02-28T01:58:25.233Z,7.72
2019-02-28T02:03:40.721Z,7.67
2019-02-28T02:08:52.522Z,7.64
2019-02-28T02:13:59.847Z,7.63
2019-02-28T02:19:09.481Z,7.57
2019-02-28T02:24:17.510Z,7.55
2019-02-28T02:29:27.629Z,7.46
2019-02-28T02:34:40.541Z,7.31
2019-02-28T02:39:51.769Z,7.21
2019-02-28T02:45:04.967Z,7.21
2019-02-28T02:50:11.595Z,7.18
2019-02-28T02:55:27.731Z,7.13
2019-02-28T03:00:30.015Z,7.07
2019-02-28T03:05:41.652Z,6.89
2019-02-28T03:10:53.014Z,6.89
2019-02-28T03:16:03.058Z,6.72
2019-02-28T03:21:14.973Z,6.63
2019-02-28T03:26:28.141Z,6.62
2019-02-28T03:31:39.243Z,6.63
2019-02-28T03:36:55.376Z,6.55
2019-02-28T03:41:56.897Z,6.41
2019-02-28T03:47:08.905Z,6.15
2019-02-28T03:52:17.898Z,6.07
2019-02-28T03:57:29.347Z,5.99
2019-02-28T04:02:39.710Z,5.97
2019-02-28T04:07:53.803Z,5.97
2019-02-28T04:13:01.877Z,5.97
2019-02-28T04:18:12.749Z,6.00
2019-02-28T04:23:22.648Z,5.95
2019-02-28T04:28:29.678Z,5.74
2019-02-28T04:33:45.673Z,5.69
2019-02-28T04:38:57.407Z,5.68
2019-02-28T04:44:05.486Z,5.64
2019-02-28T04:49:13.580Z,5.66
2019-02-28T04:54:27.921Z,5.55
2019-02-28T04:59:34.407Z,5.55
2019-02-28T05:04:43.115Z,5.57
2019-02-28T05:09:54.095Z,5.51
2019-02-28T05:15:02.517Z,5.45
2019-02-28T05:20:11.898Z,5.27
2019-02-28T05:25:19.401Z,5.22
2019-02-28T05:30:42.429Z,5.22
2019-02-28T05:35:53.540Z,5.19
2019-02-28T05:41:03.619Z,5.25
2019-02-28T05:46:13.711Z,5.13
2019-02-28T05:51:24.862Z,5.13
2019-02-28T05:56:34.073Z,5.15
2019-02-28T06:01:47.099Z,5.15
2019-02-28T06:06:56.615Z,5.16
2019-02-28T06:12:03.346Z,5.16
2019-02-28T06:17:20.630Z,5.15
2019-02-28T06:22:36.058Z,5.13
2019-02-28T06:27:48.905Z,5.08
2019-02-28T06:32:59.158Z,4.92
2019-02-28T06:38:09.076Z,4.93
2019-02-28T06:43:19.600Z,4.99
2019-02-28T06:48:34.954Z,5.04
2019-02-28T06:53:43.568Z,5.09
2019-02-28T06:58:55.687Z,5.17
2019-02-28T07:04:04.873Z,5.21
2019-02-28T07:09:14.417Z,5.27
2019-02-28T07:14:27.079Z,5.42
2019-02-28T07:19:37.161Z,5.83
2019-02-28T07:24:47.040Z,5.83
2019-02-28T07:29:57.125Z,6.05
2019-02-28T07:35:04.499Z,6.53
2019-02-28T07:40:16.214Z,6.87
2019-02-28T07:45:22.933Z,6.99
2019-02-28T07:50:30.466Z,7.17
2019-02-28T07:55:41.541Z,6.95
2019-02-28T08:00:52.620Z,6.60
2019-02-28T08:06:04.427Z,6.53
2019-02-28T08:11:11.636Z,6.72
2019-02-28T08:16:24.270Z,6.84
2019-02-28T08:21:33.699Z,6.94
2019-02-28T08:26:43.733Z,7.23
2019-02-28T08:31:51.302Z,7.41
2019-02-28T08:37:04.783Z,7.41
2019-02-28T08:42:13.934Z,7.41
2019-02-28T08:47:21.982Z,7.50
2019-02-28T08:52:31.823Z,7.82
2019-02-28T08:57:43.606Z,8.36
2019-02-28T09:02:53.871Z,8.57
2019-02-28T09:08:02.142Z,8.84
2019-02-28T09:13:12.011Z,8.37
2019-02-28T09:18:20.295Z,8.96
2019-02-28T09:23:30.103Z,9.58
2019-02-28T09:28:44.449Z,9.21
2019-02-28T09:33:55.426Z,9.56
2019-02-28T09:39:03.889Z,9.60
2019-02-28T09:44:18.408Z,9.73
2019-02-28T09:49:28.458Z,10.06
2019-02-28T09:54:39.569Z,10.65
2019-02-28T09:59:48.518Z,11.21
2019-02-28T10:04:58.426Z,13.07
2019-02-28T10:10:10.948Z,13.83
2019-02-28T10:15:27.047Z,14.14
2019-02-28T10:20:36.091Z,13.74
2019-02-28T10:25:46.022Z,12.76
2019-02-28T10:30:54.172Z,12.30
2019-02-28T10:36:01.400Z,12.01
2019-02-28T10:41:11.679Z,11.78
2019-02-28T10:46:20.299Z,11.50
2019-02-28T10:51:25.991Z,11.68
2019-02-28T10:56:39.125Z,11.75
2019-02-28T11:01:48.072Z,12.95
2019-02-28T11:06:59.350Z,13.74
2019-02-28T11:12:07.980Z,15.23
2019-02-28T11:17:16.997Z,16.06
2019-02-28T11:22:52.330Z,14.92
2019-02-28T11:28:04.085Z,15.05
2019-02-28T11:33:12.126Z,14.61
2019-02-28T11:38:21.937Z,14.35
2019-02-28T11:43:37.517Z,15.46
2019-02-28T11:48:42.186Z,16.96
2019-02-28T11:53:51.498Z,17.15
2019-02-28T11:59:08.036Z,16.34
2019-02-28T12:04:16.199Z,17.21
2019-02-28T12:09:25.962Z,17.73
2019-02-28T12:14:36.203Z,18.42
2019-02-28T12:19:50.682Z,18.51
2019-02-28T12:25:04.501Z,17.73
2019-02-28T12:30:21.931Z,18.32
2019-02-28T12:35:36.250Z,18.33
2019-02-28T12:40:45.609Z,19.03
2019-02-28T12:45:53.648Z,18.56
2019-02-28T12:51:05.358Z,20.15
2019-02-28T12:56:16.264Z,19.17
2019-02-28T13:01:33.090Z,17.09
2019-02-28T13:06:41.383Z,15.87
2019-02-28T13:11:55.562Z,17.03
2019-02-28T13:17:06.692Z,17.61
2019-02-28T13:22:18.885Z,16.65
2019-02-28T13:27:25.861Z,17.14
2019-02-28T13:32:40.260Z,17.16
2019-02-28T13:37:54.055Z,16.18
2019-02-28T13:43:07.467Z,14.18
2019-02-28T13:48:25.746Z,13.08
2019-02-28T13:53:27.139Z,12.69
2019-02-28T13:58:37.193Z,12.36
2019-02-28T14:03:49.380Z,12.23
2019-02-28T14:08:59.111Z,12.12
2019-02-28T14:14:08.022Z,12.17
2019-02-28T14:19:20.402Z,11.94
2019-02-28T14:24:30.852Z,11.78
2019-02-28T14:29:38.309Z,11.96
2019-02-28T14:34:49.934Z,11.82
2019-02-28T14:40:01.485Z,11.99
2019-02-28T14:45:14.283Z,12.08
2019-02-28T14:50:24.035Z,11.97
2019-02-28T14:55:37.475Z,12.17
2019-02-28T15:00:45.524Z,12.57
2019-02-28T15:05:56.175Z,12.77
2019-02-28T15:11:06.577Z,12.78
2019-02-28T15:16:14.508Z,12.90
2019-02-28T15:21:24.283Z,12.70
2019-02-28T15:26:33.247Z,12.63
2019-02-28T15:31:48.294Z,12.82
2019-02-28T15:36:59.324Z,12.91
2019-02-28T15:42:10.820Z,12.74
2019-02-28T15:47:23.167Z,12.74
2019-02-28T15:52:31.347Z,12.61
2019-02-28T15:57:43.811Z,12.50
2019-02-28T16:02:58.117Z,12.52
2019-02-28T16:08:10.487Z,12.60
2019-02-28T16:13:22.702Z,12.49
2019-02-28T16:18:32.294Z,12.50
2019-02-28T16:23:46.596Z,12.49
2019-02-28T16:28:59.961Z,12.48
2019-02-28T16:34:10.597Z,12.45
2019-02-28T16:39:20.456Z,12.24
2019-02-28T16:44:30.776Z,11.71
2019-02-28T16:49:41.441Z,11.51
2019-02-28T16:54:50.245Z,11.47
2019-02-28T16:59:58.679Z,11.28
2019-02-28T17:05:07.256Z,11.18
2019-02-28T17:10:17.415Z,11.05
2019-02-28T17:15:35.504Z,10.98
2019-02-28T17:21:01.333Z,10.98
2019-02-28T17:26:12.962Z,10.99
2019-02-28T17:31:52.035Z,10.98
2019-02-28T17:37:00.286Z,10.97
2019-02-28T17:42:08.806Z,10.98
2019-02-28T17:48:05.287Z,11.00
2019-02-28T17:53:41.971Z,10.88
2019-02-28T17:59:36.046Z,10.93
2019-02-28T18:05:29.714Z,10.99
2019-02-28T18:11:26.692Z,10.92
2019-02-28T18:17:02.178Z,10.98
2019-02-28T18:22:39.885Z,11.13
2019-02-28T18:28:11.405Z,11.19
2019-02-28T18:33:27.752Z,11.17
2019-02-28T18:38:37.506Z,11.14
2019-02-28T18:43:46.349Z,11.13
2019-02-28T18:48:57.863Z,11.00
2019-02-28T18:54:10.373Z,11.01
2019-02-28T18:59:21.974Z,11.09
2019-02-28T19:04:30.251Z,11.07
2019-02-28T19:09:40.068Z,11.05
2019-02-28T19:14:50.662Z,10.97
2019-02-28T19:20:03.177Z,10.86
2019-02-28T19:25:16.824Z,10.85
2019-02-28T19:30:29.254Z,10.84
2019-02-28T19:35:39.055Z,10.80
2019-02-28T19:40:50.643Z,10.73
2019-02-28T19:46:00.715Z,10.67
2019-02-28T19:51:11.818Z,10.63
2019-02-28T19:56:28.875Z,10.63
2019-02-28T20:01:38.689Z,10.58
2019-02-28T20:06:48.122Z,10.36
2019-02-28T20:11:56.279Z,10.23
2019-02-28T20:17:07.910Z,10.19
2019-02-28T20:22:15.140Z,10.14
2019-02-28T20:27:24.216Z,10.23
2019-02-28T20:32:37.637Z,10.20
2019-02-28T20:37:47.667Z,10.23
2019-02-28T20:42:56.088Z,10.21
2019-02-28T20:48:07.699Z,10.30
2019-02-28T20:53:16.610Z,10.21
2019-02-28T20:58:24.328Z,10.18
2019-02-28T21:03:35.927Z,10.22
2019-02-28T21:08:47.045Z,10.21
2019-02-28T21:13:55.964Z,10.10
2019-02-28T21:19:03.735Z,10.01
2019-02-28T21:24:16.430Z,10.03
2019-02-28T21:29:27.151Z,10.06
2019-02-28T21:34:42.633Z,10.04
2019-02-28T21:39:57.005Z,10.04
2019-02-28T21:45:09.542Z,9.94
2019-02-28T21:50:19.113Z,9.86
2019-02-28T21:55:28.835Z,9.84
2019-02-28T22:00:38.660Z,9.90
2019-02-28T22:05:46.129Z,9.88
2019-02-28T22:10:58.403Z,9.87
2019-02-28T22:16:16.100Z,9.86
2019-02-28T22:21:25.939Z,9.90
2019-02-28T22:26:34.910Z,9.92
2019-02-28T22:31:57.768Z,9.81
2019-02-28T22:37:05.966Z,9.76
2019-02-28T22:42:22.636Z,9.78
2019-02-28T22:47:30.152Z,9.69
2019-02-28T22:52:39.753Z,9.70
2019-02-28T22:57:49.667Z,9.71
2019-02-28T23:03:03.080Z,9.73
2019-02-28T23:08:18.251Z,9.71
2019-02-28T23:13:24.605Z,9.74
2019-02-28T23:18:37.945Z,9.78
2019-02-28T23:23:51.311Z,9.82
2019-02-28T23:29:25.904Z,9.83
2019-02-28T23:34:45.717Z,9.83
2019-02-28T23:39:57.739Z,9.82
2019-02-28T23:45:06.816Z,9.80
2019-02-28T23:50:16.148Z,9.70
2019-02-28T23:55:26.436Z,9.71
